Time;durP1;ratioP1;P1;durP2;ratioP2;P2;SDS_P1;SDS_P2;PMS_P1;PMS_P2;Temp;Humidity;BMP_temperature;BMP_pressure;BME280_temperature;BME280_humidity;BME280_pressure;Samples;Min_cycle;Max_cycle;Signal;HPM_P1;HPM_P2
2023/10/31 00:02:22;;;;;;;9.70;8.70;;;14.50;97.90;;;16.31;72.18;99284.16;3080842;46;20476;-67
2023/10/31 00:04:50;;;;;;;12.17;9.83;;;14.60;97.90;;;16.30;71.92;99283.34;3081128;46;20548;-68
2023/10/31 00:07:19;;;;;;;8.47;7.73;;;14.60;97.80;;;16.30;71.86;99279.91;3081826;46;20557;-68
2023/10/31 00:09:47;;;;;;;7.17;6.57;;;14.60;97.80;;;16.31;71.96;99278.84;3081845;46;21000;-67
2023/10/31 00:12:16;;;;;;;8.83;7.50;;;14.60;97.80;;;16.32;71.98;99275.13;3080791;46;21031;-67
2023/10/31 00:14:44;;;;;;;10.27;8.53;;;14.60;97.80;;;16.32;71.83;99272.47;3081252;46;20526;-67
2023/10/31 00:17:12;;;;;;;8.57;7.77;;;14.60;97.70;;;16.33;71.96;99277.53;3081581;46;21006;-67
2023/10/31 00:19:41;;;;;;;9.13;8.10;;;14.60;97.70;;;16.36;71.90;99278.88;3081692;46;20605;-68
2023/10/31 00:22:09;;;;;;;7.63;6.97;;;14.60;97.70;;;16.37;71.97;99283.16;3080773;46;20459;-68
2023/10/31 00:24:37;;;;;;;10.23;9.33;;;14.60;97.80;;;16.39;71.82;99281.06;3080836;46;20432;-68
2023/10/31 00:27:06;;;;;;;12.27;10.50;;;14.70;97.80;;;16.37;71.72;99278.66;3079896;46;20431;-67
2023/10/31 00:29:34;;;;;;;10.40;9.40;;;14.70;97.70;;;16.35;71.41;99279.97;3081384;46;20431;-67
2023/10/31 00:32:03;;;;;;;14.90;12.03;;;14.70;97.60;;;16.32;71.69;99285.75;3080795;46;20427;-68
2023/10/31 00:34:33;;;;;;;8.70;7.90;;;14.70;97.60;;;16.32;71.98;99285.75;3080498;46;20431;-68
2023/10/31 00:37:01;;;;;;;10.73;9.47;;;14.70;98.00;;;16.31;71.99;99284.94;3081286;46;20428;-68
2023/10/31 00:39:30;;;;;;;10.30;9.30;;;14.70;97.70;;;16.30;71.96;99282.53;3081321;46;20493;-66
2023/10/31 00:41:58;;;;;;;10.50;9.40;;;14.60;97.60;;;16.23;72.00;99278.25;3080858;46;20452;-66
2023/10/31 00:44:26;;;;;;;10.10;8.67;;;14.60;97.60;;;16.21;71.98;99280.31;3080591;46;21108;-66
2023/10/31 00:46:55;;;;;;;9.87;8.97;;;14.60;97.60;;;16.21;72.17;99275.00;3081202;46;20573;-68
2023/10/31 00:49:23;;;;;;;7.67;6.97;;;14.60;97.70;;;16.24;72.02;99277.16;3081277;46;20554;-67
2023/10/31 00:51:52;;;;;;;9.77;8.87;;;14.60;97.80;;;16.26;72.17;99272.41;3080907;46;20455;-66
2023/10/31 00:54:20;;;;;;;9.80;8.93;;;14.60;97.80;;;16.24;72.26;99269.22;3080334;46;21015;-67
2023/10/31 00:56:48;;;;;;;9.13;8.33;;;14.60;97.70;;;16.21;72.31;99258.28;3081012;46;20439;-67
2023/10/31 00:59:17;;;;;;;8.57;7.77;;;14.60;97.80;;;16.16;72.19;99259.00;3080990;46;20499;-67
2023/10/31 01:01:45;;;;;;;9.60;8.67;;;14.60;97.70;;;16.15;72.28;99257.41;3080287;46;20999;-66
2023/10/31 01:04:14;;;;;;;8.23;7.40;;;14.50;97.80;;;16.16;72.67;99258.22;3080076;46;20443;-66
2023/10/31 01:06:43;;;;;;;9.30;8.37;;;14.50;97.80;;;16.14;72.50;99250.50;3080852;46;20521;-66
2023/10/31 01:09:13;;;;;;;8.90;7.63;;;14.50;98.20;;;16.14;72.46;99247.84;3081084;46;20431;-67
2023/10/31 01:11:41;;;;;;;8.33;7.63;;;14.50;97.90;;;16.15;72.51;99244.16;3080486;46;20440;-68
2023/10/31 01:14:09;;;;;;;8.07;7.27;;;14.50;97.90;;;16.14;72.47;99242.53;3079822;46;20586;-65
2023/10/31 01:16:39;;;;;;;10.27;8.67;;;14.50;97.90;;;16.15;72.77;99238.84;3081013;46;20427;-66
2023/10/31 01:19:08;;;;;;;10.27;9.27;;;14.50;98.00;;;16.14;72.83;99245.19;3081183;46;20528;-67
2023/10/31 01:21:36;;;;;;;10.60;9.57;;;14.50;98.00;;;16.13;72.79;99245.44;3080100;46;20428;-67
2023/10/31 01:24:05;;;;;;;10.10;9.13;;;14.50;98.00;;;16.11;72.99;99248.34;3080041;46;20467;-66
2023/10/31 01:26:35;;;;;;;8.43;7.73;;;14.50;98.00;;;16.10;72.97;99252.03;3080308;46;21087;-67
2023/10/31 01:29:04;;;;;;;9.47;8.47;;;14.50;98.00;;;16.09;73.04;99244.34;3080909;46;20484;-68
2023/10/31 01:31:33;;;;;;;10.07;9.17;;;14.50;98.00;;;16.08;73.16;99240.88;3080418;46;21018;-68
2023/10/31 01:34:11;;;;;;;8.50;7.63;;;14.50;98.10;;;16.05;73.59;99244.00;3079380;46;20483;-66
2023/10/31 01:36:39;;;;;;;8.83;8.03;;;14.50;98.10;;;16.04;73.56;99237.13;3081726;46;21280;-68
2023/10/31 01:39:08;;;;;;;8.27;7.47;;;14.50;98.20;;;16.01;73.87;99226.19;3082785;46;20430;-67
2023/10/31 01:41:37;;;;;;;8.93;8.13;;;14.50;98.20;;;15.99;73.68;99223.78;3082690;46;20455;-68
2023/10/31 01:44:05;;;;;;;7.67;6.90;;;14.50;98.20;;;15.97;73.84;99219.75;3082541;46;20583;-68
2023/10/31 01:46:34;;;;;;;9.67;8.53;;;14.40;98.30;;;15.95;74.16;99217.34;3083158;46;20524;-68
2023/10/31 01:49:03;;;;;;;7.90;7.20;;;14.40;98.30;;;15.94;74.24;99221.06;3083030;46;20448;-69
2023/10/31 01:51:31;;;;;;;8.33;7.53;;;14.40;98.30;;;15.93;74.33;99213.31;3082732;46;20452;-68
2023/10/31 01:54:00;;;;;;;9.73;8.70;;;14.40;98.40;;;15.95;74.16;99205.94;3082112;46;20467;-67
2023/10/31 01:56:28;;;;;;;9.80;8.80;;;14.40;98.50;;;15.94;74.50;99204.31;3083054;46;20431;-65
2023/10/31 01:58:57;;;;;;;9.27;8.33;;;14.40;98.60;;;15.93;74.58;99214.13;3082962;46;20426;-66
2023/10/31 02:01:26;;;;;;;9.47;8.57;;;14.40;98.60;;;15.93;74.49;99202.72;3081942;46;20441;-69
2023/10/31 02:03:54;;;;;;;10.23;9.23;;;14.40;98.60;;;15.92;74.39;99207.25;3081822;46;20495;-68
2023/10/31 02:06:22;;;;;;;8.47;7.67;;;14.40;98.60;;;15.92;74.60;99220.50;3083032;46;20458;-68
2023/10/31 02:08:51;;;;;;;9.70;8.80;;;14.40;98.70;;;15.93;74.51;99208.81;3082144;46;20568;-67
2023/10/31 02:11:19;;;;;;;10.13;8.93;;;14.40;98.70;;;15.94;74.67;99210.44;3082714;46;20434;-67
2023/10/31 02:13:48;;;;;;;9.30;8.27;;;14.40;98.80;;;15.94;74.94;99213.09;3081410;46;20463;-67
2023/10/31 02:16:16;;;;;;;9.53;8.57;;;14.40;98.80;;;15.95;74.95;99201.41;3081436;46;20427;-67
2023/10/31 02:18:45;;;;;;;10.17;9.17;;;14.40;98.80;;;15.96;74.52;99197.72;3082507;46;21107;-67
2023/10/31 02:21:13;;;;;;;9.33;8.43;;;14.40;98.80;;;15.97;74.55;99199.34;3082648;46;20509;-66
2023/10/31 02:23:41;;;;;;;10.43;9.43;;;14.40;98.80;;;15.98;74.70;99194.81;3081485;46;20570;-67
2023/10/31 02:26:10;;;;;;;10.13;9.13;;;14.40;98.80;;;15.96;74.76;99197.72;3081769;46;21017;-67
2023/10/31 02:28:38;;;;;;;10.67;9.43;;;14.40;98.80;;;15.95;74.94;99185.50;3082634;46;21070;-66
2023/10/31 02:31:07;;;;;;;10.93;9.80;;;14.40;98.80;;;15.95;74.95;99190.81;3082413;46;20528;-68
2023/10/31 02:33:50;;;;;;;11.60;10.40;;;14.40;98.80;;;15.93;75.01;99195.56;3081567;46;20467;-68
2023/10/31 02:36:19;;;;;;;11.20;10.00;;;14.40;98.80;;;15.97;74.51;99188.72;3082890;46;21089;-66
2023/10/31 02:38:47;;;;;;;11.47;10.37;;;14.40;98.90;;;15.97;74.68;99188.72;3082370;46;20576;-67
2023/10/31 02:41:16;;;;;;;11.50;10.27;;;14.40;98.90;;;15.98;74.82;99174.38;3081956;46;20452;-71
2023/10/31 02:43:45;;;;;;;11.43;10.33;;;14.40;98.90;;;15.99;74.80;99170.69;3081958;46;20443;-68
2023/10/31 02:46:15;;;;;;;12.43;11.03;;;14.40;98.90;;;16.00;74.84;99169.63;3082640;46;20428;-67
2023/10/31 02:48:43;;;;;;;11.63;10.53;;;14.40;98.90;;;16.00;74.61;99169.63;3082016;46;20507;-67
2023/10/31 02:51:12;;;;;;;12.23;11.10;;;14.40;98.90;;;16.00;74.80;99171.47;3082146;46;20448;-67
2023/10/31 02:53:40;;;;;;;12.17;11.00;;;14.40;98.90;;;15.98;75.10;99163.78;3081668;46;20442;-67
2023/10/31 02:56:08;;;;;;;12.73;11.50;;;14.40;99.00;;;15.99;75.07;99168.06;3082794;46;20452;-66
2023/10/31 02:58:37;;;;;;;12.77;11.47;;;14.40;98.90;;;16.00;74.89;99166.97;3081614;46;20508;-66
2023/10/31 03:01:05;;;;;;;12.30;11.10;;;14.40;98.90;;;16.01;74.91;99160.63;3082124;46;20427;-68
2023/10/31 03:03:34;;;;;;;13.10;11.47;;;14.40;99.00;;;16.03;74.84;99163.84;3081418;46;21118;-68
2023/10/31 03:06:05;;;;;;;11.63;10.53;;;14.50;99.00;;;16.06;74.64;99165.19;3082206;46;20477;-67
2023/10/31 03:08:33;;;;;;;13.00;11.57;;;14.50;99.00;;;16.05;74.58;99167.03;3082169;46;20455;-68
2023/10/31 03:11:02;;;;;;;13.10;11.67;;;14.50;99.00;;;16.04;74.68;99168.09;3081961;46;21123;-68
2023/10/31 03:13:30;;;;;;;13.37;11.50;;;14.50;99.00;;;16.06;74.87;99165.19;3081345;46;20443;-67
2023/10/31 03:15:59;;;;;;;14.37;12.33;;;14.50;98.90;;;16.05;74.67;99167.03;3082470;46;20533;-66
2023/10/31 03:18:27;;;;;;;13.80;11.90;;;14.50;99.00;;;16.06;74.83;99158.03;3082185;46;20438;-67
2023/10/31 03:20:55;;;;;;;13.67;12.27;;;14.50;99.00;;;16.06;74.81;99158.03;3082059;46;20478;-67
2023/10/31 03:23:24;;;;;;;13.73;12.33;;;14.50;98.90;;;16.07;74.62;99156.16;3079635;46;20593;-67
2023/10/31 03:25:52;;;;;;;13.43;12.03;;;14.50;99.00;;;16.09;74.63;99144.25;3081209;46;20528;-68
2023/10/31 03:28:23;;;;;;;18.17;14.27;;;14.50;99.00;;;16.10;74.70;99127.28;3081637;46;20431;-66
2023/10/31 03:30:52;;;;;;;15.67;12.93;;;14.50;99.00;;;16.12;74.66;99127.84;3081117;46;20545;-67
2023/10/31 03:33:20;;;;;;;14.90;13.40;;;14.50;99.00;;;16.16;74.46;99120.97;3080720;46;20443;-67
2023/10/31 03:35:49;;;;;;;14.00;12.60;;;14.50;99.00;;;16.20;74.42;99119.44;3081657;46;20609;-68
2023/10/31 03:38:17;;;;;;;14.53;13.13;;;14.50;99.00;;;16.21;74.26;99126.31;3081837;46;20573;-66
2023/10/31 03:40:46;;;;;;;13.77;12.37;;;14.60;99.00;;;16.24;74.32;99120.53;3082307;46;20427;-67
2023/10/31 03:43:14;;;;;;;14.80;13.03;;;14.60;99.00;;;16.26;74.22;99110.44;3080279;46;20439;-66
2023/10/31 03:45:43;;;;;;;13.83;12.43;;;14.60;99.00;;;16.29;74.21;99117.09;3082116;46;20459;-68
2023/10/31 03:48:11;;;;;;;13.43;12.13;;;14.60;99.00;;;16.33;74.08;99125.38;3081479;46;20468;-68
2023/10/31 03:50:39;;;;;;;15.57;13.80;;;14.60;99.00;;;16.36;74.14;99122.22;3081404;46;20490;-68
2023/10/31 03:53:08;;;;;;;19.47;15.63;;;14.60;99.30;;;16.37;73.95;99121.16;3081026;46;20477;-67
2023/10/31 03:55:36;;;;;;;15.13;13.03;;;14.60;98.90;;;16.37;74.08;99121.97;3081447;46;21071;-66
2023/10/31 03:58:05;;;;;;;15.93;13.50;;;14.70;98.90;;;16.38;74.03;99122.78;3081614;46;20943;-68
2023/10/31 04:00:34;;;;;;;16.63;13.50;;;14.70;98.90;;;16.37;73.92;99111.34;3081556;46;20428;-67
2023/10/31 04:03:02;;;;;;;11.90;10.70;;;14.70;98.90;;;16.37;74.01;99118.50;3080775;46;21040;-68
2023/10/31 04:05:31;;;;;;;14.00;12.40;;;14.70;98.80;;;16.38;73.63;99114.81;3081641;46;20494;-67
2023/10/31 04:07:59;;;;;;;13.57;12.17;;;14.70;98.90;;;16.38;73.91;99109.50;3081788;46;20482;-68
2023/10/31 04:10:27;;;;;;;12.13;10.93;;;14.70;98.80;;;16.36;73.76;99123.00;3081393;46;20568;-66
2023/10/31 04:12:56;;;;;;;12.57;10.60;;;14.70;98.80;;;16.36;73.73;99111.59;3080983;46;20521;-67
2023/10/31 04:15:24;;;;;;;11.77;10.67;;;14.70;98.80;;;16.36;73.61;99111.59;3081669;46;20427;-66
2023/10/31 04:17:52;;;;;;;12.30;11.00;;;14.70;98.80;;;16.34;73.94;99114.50;3081352;46;20460;-68
2023/10/31 04:20:21;;;;;;;12.53;11.23;;;14.70;98.80;;;16.34;73.94;99108.38;3080939;46;21097;-68
2023/10/31 04:22:49;;;;;;;11.67;10.37;;;14.70;98.80;;;16.35;73.82;99104.69;3080492;46;20463;-68
2023/10/31 04:25:18;;;;;;;13.23;10.90;;;14.70;98.80;;;16.37;73.73;99114.00;3081527;46;20427;-66
2023/10/31 04:27:46;;;;;;;12.23;11.00;;;14.70;98.80;;;16.38;73.83;99102.31;3081085;46;20475;-71
2023/10/31 04:30:15;;;;;;;10.67;9.63;;;14.70;98.80;;;16.40;73.66;99107.41;3081759;46;20438;-65
2023/10/31 04:32:44;;;;;;;12.37;10.33;;;14.70;98.80;;;16.39;73.66;99100.47;3080358;46;20561;-66
2023/10/31 04:35:12;;;;;;;11.63;10.23;;;14.70;98.80;;;16.36;73.79;99096.47;3080921;46;20521;-66
2023/10/31 04:37:41;;;;;;;11.23;10.20;;;14.70;98.70;;;16.34;73.74;99101.22;3081273;46;20701;-67
2023/10/31 04:40:10;;;;;;;11.47;10.33;;;14.70;98.70;;;16.30;73.94;99096.69;3081067;46;20483;-68
2023/10/31 04:42:40;;;;;;;11.80;10.70;;;14.70;98.60;;;16.24;74.06;99093.97;3080053;46;21072;-66
2023/10/31 04:45:09;;;;;;;11.23;10.00;;;14.70;98.70;;;16.22;74.15;99101.38;3081044;46;20515;-68
2023/10/31 04:47:38;;;;;;;11.53;10.37;;;14.70;98.70;;;16.23;74.15;99086.28;3081486;46;20548;-67
2023/10/31 04:50:09;;;;;;;12.53;11.33;;;14.60;98.70;;;16.22;74.02;99090.78;3080877;46;20438;-66
2023/10/31 04:52:37;;;;;;;12.03;10.80;;;14.70;98.70;;;16.22;74.24;99088.13;3080057;46;21041;-63
2023/10/31 04:55:06;;;;;;;12.23;11.03;;;14.70;98.70;;;16.24;74.18;99093.97;3080666;46;20482;-67
2023/10/31 04:57:35;;;;;;;14.40;11.50;;;14.70;98.80;;;16.28;73.99;99099.59;3081156;46;20431;-66
2023/10/31 05:00:06;;;;;;;14.93;12.77;;;14.70;98.80;;;16.30;74.22;99094.81;3080951;46;20430;-67
2023/10/31 05:02:34;;;;;;;16.13;13.90;;;14.70;98.80;;;16.31;73.80;99111.56;3079970;46;20463;-66
2023/10/31 05:05:03;;;;;;;14.60;13.10;;;14.70;98.80;;;16.33;73.88;99107.56;3081754;46;20525;-69
2023/10/31 05:07:32;;;;;;;14.83;12.60;;;14.70;98.80;;;16.36;73.86;99115.06;3080454;46;20431;-67
2023/10/31 05:10:01;;;;;;;13.10;11.80;;;14.70;98.80;;;16.40;73.84;99112.72;3081199;46;20483;-66
2023/10/31 05:12:29;;;;;;;14.07;12.67;;;14.70;98.80;;;16.40;73.57;99108.19;3083099;46;20484;-67
2023/10/31 05:14:58;;;;;;;14.17;12.77;;;14.70;98.70;;;16.39;73.36;99116.41;3085842;46;21112;-68
2023/10/31 05:17:26;;;;;;;13.07;11.87;;;14.70;98.50;;;16.33;72.80;99126.16;3085995;46;21003;-68
2023/10/31 05:19:55;;;;;;;14.63;13.13;;;14.70;98.10;;;16.28;72.87;99121.63;3085814;46;20452;-66
2023/10/31 05:22:23;;;;;;;12.50;11.30;;;14.70;98.00;;;16.31;72.93;99127.50;3084584;46;20431;-70
2023/10/31 05:24:52;;;;;;;12.33;11.13;;;14.70;98.00;;;16.28;72.58;99126.91;3085709;46;20430;-66
2023/10/31 05:27:20;;;;;;;12.93;11.63;;;14.70;97.80;;;16.31;72.43;99130.94;3085392;46;20426;-67
2023/10/31 05:29:49;;;;;;;12.10;10.90;;;14.70;97.70;;;16.32;72.54;99129.09;3085839;46;20428;-68
2023/10/31 05:32:17;;;;;;;10.80;9.80;;;14.70;97.70;;;16.27;71.97;99124.53;3084502;46;20497;-68
2023/10/31 05:34:45;;;;;;;10.67;9.67;;;14.70;97.50;;;16.24;71.86;99128.50;3085404;46;20478;-67
2023/10/31 05:37:14;;;;;;;11.10;10.10;;;14.70;97.50;;;16.22;71.58;99137.75;3085727;46;20430;-67
2023/10/31 05:39:43;;;;;;;11.17;10.07;;;14.60;97.30;;;16.16;71.80;99134.22;3085981;46;20993;-68
2023/10/31 05:42:11;;;;;;;10.53;9.50;;;14.60;97.20;;;16.13;71.41;99152.53;3084519;46;20491;-67
2023/10/31 05:44:39;;;;;;;10.10;9.20;;;14.60;97.20;;;16.05;71.31;99159.06;3085676;46;20426;-68
2023/10/31 05:47:08;;;;;;;9.70;8.80;;;14.60;97.10;;;16.02;71.49;99186.09;3085112;46;20540;-68
2023/10/31 05:49:36;;;;;;;3.70;3.40;;;14.50;97.10;;;15.97;70.75;99186.06;3085540;46;20431;-68
2023/10/31 05:52:05;;;;;;;2.37;2.20;;;14.40;96.40;;;15.90;70.37;99193.38;3084650;46;20569;-68
2023/10/31 05:54:33;;;;;;;1.60;1.50;;;14.40;95.70;;;15.84;69.89;99193.59;3085414;46;20575;-69
2023/10/31 05:57:02;;;;;;;1.20;1.10;;;14.30;95.80;;;15.76;69.60;99192.16;3085701;46;20557;-67
2023/10/31 05:59:30;;;;;;;0.83;0.83;;;14.20;95.70;;;15.72;69.62;99204.31;3085748;46;20451;-68
2023/10/31 06:01:59;;;;;;;1.00;0.90;;;14.10;95.70;;;15.61;68.96;99217.69;3084908;46;20430;-67
2023/10/31 06:04:27;;;;;;;0.77;0.77;;;14.00;95.60;;;15.51;69.11;99231.63;3084673;46;20440;-67
2023/10/31 06:06:56;;;;;;;0.87;0.87;;;14.00;95.60;;;15.40;69.32;99229.84;3085151;46;20508;-67
2023/10/31 06:09:24;;;;;;;0.60;0.60;;;13.90;95.50;;;15.30;69.29;99234.97;3085235;46;20486;-67
2023/10/31 06:11:52;;;;;;;1.00;0.80;;;13.80;95.60;;;15.22;69.62;99230.06;3084959;46;20427;-68
2023/10/31 06:14:21;;;;;;;1.70;0.80;;;13.70;95.80;;;15.15;69.80;99242.69;3084797;46;20910;-68
2023/10/31 06:16:49;;;;;;;0.63;0.50;;;13.60;95.80;;;15.08;69.57;99260.59;3085058;46;20991;-66
2023/10/31 06:19:18;;;;;;;1.03;0.93;;;13.60;95.90;;;14.99;69.75;99264.69;3085333;46;20453;-67
2023/10/31 06:21:46;;;;;;;0.60;0.60;;;13.50;96.00;;;14.92;69.96;99275.44;3084697;46;20450;-67
2023/10/31 06:24:15;;;;;;;0.50;0.50;;;13.40;96.10;;;14.88;70.08;99276.97;3081395;46;20438;-66
2023/10/31 06:26:43;;;;;;;1.07;0.77;;;13.40;96.20;;;14.86;70.43;99266.59;3081837;46;20481;-67
2023/10/31 06:29:11;;;;;;;0.70;0.70;;;13.30;96.30;;;14.83;70.59;99282.94;3082730;46;20989;-68
2023/10/31 06:32:01;;;;;;;0.80;0.80;;;13.30;96.30;;;14.78;70.42;99287.38;3081970;46;20439;-66
2023/10/31 06:34:29;;;;;;;0.67;0.60;;;13.20;96.20;;;14.74;70.32;99289.69;3081763;46;20438;-67
2023/10/31 06:36:58;;;;;;;1.17;0.70;;;13.20;96.30;;;14.73;70.26;99296.03;3082658;46;20523;-68
2023/10/31 06:39:26;;;;;;;2.00;0.70;;;13.20;96.30;;;14.71;70.62;99289.38;3082563;46;20547;-66
2023/10/31 06:41:55;;;;;;;0.70;0.70;;;13.10;96.30;;;14.69;70.20;99302.81;3082205;46;20448;-68
2023/10/31 06:44:24;;;;;;;1.00;0.87;;;13.10;96.30;;;14.68;70.25;99326.91;3082021;46;20439;-66
2023/10/31 06:46:52;;;;;;;0.67;0.67;;;13.10;96.20;;;14.67;70.47;99319.97;3082745;46;20493;-64
2023/10/31 06:49:22;;;;;;;0.70;0.70;;;13.10;96.20;;;14.67;70.35;99322.63;3082325;46;20427;-68
2023/10/31 06:51:50;;;;;;;3.93;0.90;;;13.00;95.90;;;14.68;69.88;99322.41;3081842;46;20525;-66
2023/10/31 06:54:19;;;;;;;2.13;0.93;;;13.00;95.80;;;14.68;69.73;99337.50;3081476;46;20439;-67
2023/10/31 06:56:47;;;;;;;1.03;0.93;;;13.00;95.80;;;14.69;69.04;99325.88;3082031;46;20492;-66
2023/10/31 06:59:17;;;;;;;2.10;0.70;;;13.00;95.70;;;14.69;69.36;99329.31;3082366;46;20428;-66
2023/10/31 07:01:46;;;;;;;1.73;0.70;;;13.00;95.70;;;14.70;69.39;99341.53;3081810;46;20524;-67
2023/10/31 07:04:16;;;;;;;4.77;2.97;;;13.10;95.70;;;14.72;69.29;99341.28;3081562;46;20507;-66
2023/10/31 07:06:45;;;;;;;2.43;0.80;;;13.00;95.60;;;14.75;69.17;99351.41;3082263;46;20423;-66
2023/10/31 07:09:13;;;;;;;3.07;1.07;;;13.00;95.40;;;14.77;68.79;99352.78;3082348;46;20427;-64
2023/10/31 07:11:44;;;;;;;2.53;0.50;;;13.00;95.50;;;14.78;68.49;99357.06;3081605;46;20428;-65
2023/10/31 07:14:12;;;;;;;0.97;0.63;;;13.10;95.40;;;14.81;68.38;99359.22;3081661;46;21019;-66
2023/10/31 07:16:43;;;;;;;2.73;0.90;;;13.10;95.40;;;14.81;68.20;99369.81;3081991;46;20483;-64
2023/10/31 07:19:12;;;;;;;1.07;0.70;;;13.10;95.20;;;14.83;68.41;99373.03;3082277;46;20583;-67
2023/10/31 07:21:40;;;;;;;0.77;0.63;;;13.10;95.30;;;14.83;67.84;99373.03;3081054;46;20435;-68
2023/10/31 07:24:09;;;;;;;1.13;0.80;;;13.10;95.20;;;14.85;67.82;99396.66;3081415;46;20459;-67
2023/10/31 07:26:37;;;;;;;4.07;1.10;;;13.10;95.20;;;14.82;67.83;99392.63;3081447;46;20427;-68
2023/10/31 07:29:06;;;;;;;2.20;0.83;;;13.10;95.20;;;14.79;68.19;99400.22;3081963;46;20506;-68
2023/10/31 07:31:38;;;;;;;0.80;0.63;;;13.10;95.20;;;14.77;68.06;99400.47;3081455;46;20427;-66
2023/10/31 07:34:06;;;;;;;0.83;0.80;;;13.10;95.20;;;14.75;68.07;99405.19;3080532;46;20439;-66
2023/10/31 07:36:35;;;;;;;1.67;0.90;;;13.10;95.20;;;14.74;68.13;99414.16;3082084;46;20489;-68
2023/10/31 07:39:03;;;;;;;2.30;0.80;;;13.10;95.30;;;14.72;68.49;99413.59;3081831;46;20472;-68
2023/10/31 07:41:32;;;;;;;1.50;0.90;;;13.10;95.40;;;14.70;68.45;99420.97;3081438;46;20489;-68
2023/10/31 07:44:00;;;;;;;1.13;1.03;;;13.00;95.40;;;14.67;68.72;99421.44;3080979;46;21048;-66
2023/10/31 07:46:29;;;;;;;2.00;0.83;;;13.10;95.50;;;14.65;68.57;99431.47;3081630;46;20529;-67
2023/10/31 07:48:57;;;;;;;2.23;0.83;;;13.10;95.50;;;14.63;68.83;99430.91;3081639;46;20998;-66
2023/10/31 07:51:25;;;;;;;1.33;1.00;;;13.00;95.50;;;14.61;68.77;99440.91;3081282;46;20456;-66
2023/10/31 07:53:54;;;;;;;1.73;0.87;;;13.00;95.50;;;14.61;68.65;99448.06;3080951;46;20471;-66
2023/10/31 07:56:22;;;;;;;1.53;0.93;;;13.00;95.60;;;14.60;68.92;99441.13;3081573;46;20537;-66
2023/10/31 07:58:51;;;;;;;1.50;0.73;;;13.00;95.50;;;14.59;69.03;99450.94;3081948;46;20434;-67
2023/10/31 08:01:21;;;;;;;0.70;0.70;;;13.00;95.60;;;14.58;69.02;99459.91;3081215;46;20517;-66
2023/10/31 08:03:49;;;;;;;0.63;0.60;;;13.00;95.50;;;14.58;68.98;99459.09;3080648;46;20444;-66
2023/10/31 08:06:18;;;;;;;2.03;0.80;;;12.90;95.50;;;14.59;68.54;99466.03;3081691;46;20459;-66
2023/10/31 08:08:46;;;;;;;1.53;0.70;;;12.90;95.40;;;14.59;68.58;99466.84;3081630;46;20431;-67
2023/10/31 08:11:15;;;;;;;3.23;0.80;;;12.90;95.40;;;14.60;68.63;99473.72;3081062;46;20478;-67
2023/10/31 08:13:43;;;;;;;0.60;0.57;;;12.90;95.40;;;14.59;68.80;99477.44;3080938;46;20438;-67
2023/10/31 08:16:19;;;;;;;0.70;0.70;;;12.90;95.40;;;14.60;68.85;99479.03;3081134;46;20441;-68
2023/10/31 08:18:49;;;;;;;0.57;0.50;;;12.90;95.40;;;14.68;68.60;99485.81;3081437;46;20452;-68
2023/10/31 08:21:17;;;;;;;0.53;0.53;;;13.00;95.50;;;14.75;68.39;99489.16;3080981;46;20467;-66
2023/10/31 08:23:46;;;;;;;0.87;0.67;;;13.00;95.50;;;14.79;68.72;99496.38;3080802;46;20439;-67
2023/10/31 08:26:14;;;;;;;0.80;0.67;;;13.00;95.50;;;14.82;68.02;99498.59;3080924;46;21072;-65
2023/10/31 08:28:43;;;;;;;0.50;0.50;;;13.00;95.40;;;14.84;68.45;99504.44;3081032;46;20488;-67
2023/10/31 08:31:11;;;;;;;1.47;0.70;;;13.10;95.50;;;14.89;68.35;99517.00;3081067;46;20475;-67
2023/10/31 08:33:39;;;;;;;0.43;0.43;;;13.10;95.60;;;14.92;68.41;99513.91;3080337;46;20442;-67
2023/10/31 08:36:08;;;;;;;0.50;0.50;;;13.10;95.60;;;14.97;67.81;99521.94;3081305;46;20484;-68
2023/10/31 08:38:37;;;;;;;1.17;0.63;;;13.10;95.40;;;15.00;67.77;99521.47;3080881;46;20484;-68
2023/10/31 08:41:05;;;;;;;0.60;0.60;;;13.20;95.50;;;15.00;68.02;99524.13;3080949;46;21094;-67
2023/10/31 08:43:34;;;;;;;1.20;0.70;;;13.20;95.40;;;14.99;68.07;99519.06;3080365;46;20446;-68
2023/10/31 08:46:03;;;;;;;1.63;0.83;;;13.20;95.50;;;14.95;68.14;99526.69;3080534;46;20445;-67
2023/10/31 08:48:31;;;;;;;0.50;0.40;;;13.20;95.50;;;14.94;68.23;99527.72;3080843;46;20451;-66
2023/10/31 08:50:59;;;;;;;1.37;1.00;;;13.20;95.60;;;14.99;68.45;99529.66;3080467;46;21088;-67
2023/10/31 08:53:28;;;;;;;0.80;0.80;;;13.20;95.70;;;15.03;68.57;99541.41;3080411;46;20443;-67
2023/10/31 08:55:56;;;;;;;0.60;0.50;;;13.20;95.80;;;15.08;68.39;99544.97;3080808;46;20584;-68
2023/10/31 08:58:25;;;;;;;0.40;0.40;;;13.20;95.90;;;15.14;68.34;99543.25;3080643;46;20423;-68
2023/10/31 09:00:53;;;;;;;0.73;0.60;;;13.30;95.90;;;15.16;68.53;99541.97;3080003;46;20594;-66
2023/10/31 09:03:21;;;;;;;0.87;0.70;;;13.30;95.90;;;15.17;67.89;99553.34;3080600;46;21089;-68
2023/10/31 09:05:50;;;;;;;2.70;0.90;;;13.30;95.80;;;15.17;68.36;99558.66;3080588;46;20575;-66
2023/10/31 09:08:18;;;;;;;0.93;0.70;;;13.30;95.80;;;15.15;68.39;99560.75;3081081;46;20471;-66
2023/10/31 09:10:47;;;;;;;1.00;0.60;;;13.30;95.80;;;15.13;68.16;99573.44;3080877;46;20520;-67
2023/10/31 09:13:15;;;;;;;1.83;0.70;;;13.40;95.80;;;15.12;68.52;99569.19;3080304;46;21174;-66
2023/10/31 09:15:45;;;;;;;0.80;0.67;;;13.30;95.70;;;15.12;68.23;99572.59;3080584;46;21024;-66
2023/10/31 09:18:14;;;;;;;1.33;0.80;;;13.40;95.80;;;15.11;68.56;99575.50;3080772;46;20549;-66
2023/10/31 09:20:42;;;;;;;0.93;0.83;;;13.30;95.80;;;15.10;68.87;99568.56;3080378;46;20440;-67
2023/10/31 09:23:11;;;;;;;1.50;0.70;;;13.30;95.80;;;15.11;68.49;99580.81;3080282;46;20467;-67
2023/10/31 09:25:39;;;;;;;0.90;0.77;;;13.30;95.80;;;15.10;68.43;99579.19;3080140;46;20432;-66
2023/10/31 09:28:07;;;;;;;0.80;0.80;;;13.40;95.90;;;15.11;68.97;99591.41;3080742;46;20467;-68
2023/10/31 09:30:36;;;;;;;0.80;0.60;;;13.40;95.90;;;15.11;68.82;99592.22;3080127;46;20500;-68
2023/10/31 09:33:04;;;;;;;3.57;0.90;;;13.40;96.00;;;15.14;68.86;99596.25;3080241;46;20442;-69
2023/10/31 09:35:33;;;;;;;1.20;0.80;;;13.40;96.00;;;15.15;68.88;99608.44;3081016;46;20541;-67
2023/10/31 09:38:01;;;;;;;1.47;0.90;;;13.40;96.00;;;15.17;68.59;99601.88;3080857;46;20427;-66
2023/10/31 09:40:30;;;;;;;1.10;0.97;;;13.40;96.00;;;15.17;69.00;99622.28;3080264;46;20424;-66
2023/10/31 09:42:58;;;;;;;1.90;1.03;;;13.40;96.00;;;15.17;68.85;99625.75;3079630;46;20454;-67
2023/10/31 09:45:27;;;;;;;1.20;0.87;;;13.40;96.00;;;15.19;68.89;99628.19;3080830;46;20486;-66
2023/10/31 09:47:57;;;;;;;2.07;1.20;;;13.40;96.00;;;15.21;68.88;99636.69;3080350;46;20544;-67
2023/10/31 09:50:26;;;;;;;1.10;1.00;;;13.40;96.00;;;15.23;68.73;99637.28;3079351;46;20520;-67
2023/10/31 09:52:56;;;;;;;1.90;0.90;;;13.50;96.10;;;15.23;68.53;99640.72;3080168;46;20527;-66
2023/10/31 09:55:26;;;;;;;2.13;1.40;;;13.50;96.10;;;15.26;68.79;99642.91;3080511;46;20428;-67
2023/10/31 09:57:54;;;;;;;1.20;1.10;;;13.50;96.10;;;15.27;68.66;99654.31;3081285;46;20451;-68
2023/10/31 10:00:23;;;;;;;1.13;0.83;;;13.50;96.10;;;15.31;68.91;99655.47;3082405;46;20489;-67
2023/10/31 10:02:52;;;;;;;2.53;1.20;;;13.50;96.10;;;15.37;68.98;99659.84;3082687;46;20620;-68
2023/10/31 10:05:23;;;;;;;2.43;1.20;;;13.60;96.30;;;15.39;68.58;99665.72;3082986;46;20568;-68
2023/10/31 10:07:56;;;;;;;2.30;1.50;;;13.60;96.20;;;15.41;68.42;99671.59;3082962;46;21064;-67
2023/10/31 10:10:25;;;;;;;1.50;1.40;;;13.60;96.20;;;15.41;68.80;99674.25;3082650;46;20551;-66
2023/10/31 10:12:53;;;;;;;2.73;1.50;;;13.60;96.20;;;15.42;69.02;99675.88;3082326;46;20986;-68
2023/10/31 10:15:21;;;;;;;1.73;1.50;;;13.60;96.20;;;15.43;68.73;99680.94;3082601;46;20452;-66
2023/10/31 10:17:53;;;;;;;1.60;1.50;;;13.60;96.20;;;15.45;68.79;99680.75;3082939;46;20426;-68
2023/10/31 10:20:22;;;;;;;1.93;1.43;;;13.70;96.20;;;15.48;68.92;99683.72;3082532;46;20450;-67
2023/10/31 10:22:50;;;;;;;3.47;1.83;;;13.70;96.30;;;15.53;68.91;99683.03;3082436;46;20446;-67